sensor_id;sensor_type;location;lat;lon;timestamp;P1;durP1;ratioP1;P2;durP2;ratioP2
53263;SDS011;39153;52.680;6.172;2023-05-07T00:01:25;15.10;;;13.48;;
53263;SDS011;39153;52.680;6.172;2023-05-07T00:03:51;16.17;;;14.30;;
53263;SDS011;39153;52.680;6.172;2023-05-07T00:06:16;14.63;;;12.75;;
53263;SDS011;39153;52.680;6.172;2023-05-07T00:08:42;15.50;;;13.90;;
53263;SDS011;39153;52.680;6.172;2023-05-07T00:11:08;16.75;;;15.00;;
53263;SDS011;39153;52.680;6.172;2023-05-07T00:13:34;14.05;;;12.65;;
53263;SDS011;39153;52.680;6.172;2023-05-07T00:16:03;15.85;;;14.18;;
53263;SDS011;39153;52.680;6.172;2023-05-07T00:18:29;15.55;;;13.75;;
53263;SDS011;39153;52.680;6.172;2023-05-07T00:20:55;14.88;;;13.27;;
53263;SDS011;39153;52.680;6.172;2023-05-07T00:23:21;15.18;;;13.57;;
53263;SDS011;39153;52.680;6.172;2023-05-07T00:25:47;17.92;;;15.80;;
53263;SDS011;39153;52.680;6.172;2023-05-07T00:28:13;15.07;;;13.52;;
53263;SDS011;39153;52.680;6.172;2023-05-07T00:30:38;18.05;;;16.25;;
53263;SDS011;39153;52.680;6.172;2023-05-07T00:33:04;15.98;;;13.88;;
53263;SDS011;39153;52.680;6.172;2023-05-07T00:35:30;16.65;;;14.95;;
53263;SDS011;39153;52.680;6.172;2023-05-07T00:37:55;16.95;;;14.85;;
53263;SDS011;39153;52.680;6.172;2023-05-07T00:40:21;16.63;;;15.02;;
53263;SDS011;39153;52.680;6.172;2023-05-07T00:42:47;18.75;;;16.50;;
53263;SDS011;39153;52.680;6.172;2023-05-07T00:45:14;17.38;;;14.90;;
53263;SDS011;39153;52.680;6.172;2023-05-07T00:47:40;19.38;;;17.33;;
53263;SDS011;39153;52.680;6.172;2023-05-07T00:50:07;18.25;;;16.42;;
53263;SDS011;39153;52.680;6.172;2023-05-07T00:52:35;19.30;;;17.15;;
53263;SDS011;39153;52.680;6.172;2023-05-07T00:55:04;19.20;;;17.38;;
53263;SDS011;39153;52.680;6.172;2023-05-07T00:57:37;23.42;;;20.90;;
53263;SDS011;39153;52.680;6.172;2023-05-07T01:00:06;20.85;;;18.65;;
53263;SDS011;39153;52.680;6.172;2023-05-07T01:02:34;21.52;;;19.10;;
53263;SDS011;39153;52.680;6.172;2023-05-07T01:05:00;21.15;;;18.75;;
53263;SDS011;39153;52.680;6.172;2023-05-07T01:07:28;22.63;;;20.33;;
53263;SDS011;39153;52.680;6.172;2023-05-07T01:09:55;22.65;;;20.38;;
53263;SDS011;39153;52.680;6.172;2023-05-07T01:12:22;23.08;;;20.67;;
53263;SDS011;39153;52.680;6.172;2023-05-07T01:14:49;24.98;;;22.42;;
53263;SDS011;39153;52.680;6.172;2023-05-07T01:17:15;26.13;;;22.25;;
53263;SDS011;39153;52.680;6.172;2023-05-07T01:19:41;26.40;;;23.70;;
53263;SDS011;39153;52.680;6.172;2023-05-07T01:22:08;24.98;;;22.45;;
53263;SDS011;39153;52.680;6.172;2023-05-07T01:24:36;26.10;;;23.45;;
53263;SDS011;39153;52.680;6.172;2023-05-07T01:27:02;26.75;;;24.10;;
53263;SDS011;39153;52.680;6.172;2023-05-07T01:29:28;24.77;;;22.25;;
53263;SDS011;39153;52.680;6.172;2023-05-07T01:31:58;24.65;;;22.10;;
53263;SDS011;39153;52.680;6.172;2023-05-07T01:34:25;25.25;;;22.75;;
53263;SDS011;39153;52.680;6.172;2023-05-07T01:36:56;26.27;;;23.58;;
53263;SDS011;39153;52.680;6.172;2023-05-07T01:39:27;26.15;;;23.38;;
53263;SDS011;39153;52.680;6.172;2023-05-07T01:41:55;28.48;;;25.20;;
53263;SDS011;39153;52.680;6.172;2023-05-07T01:44:21;25.63;;;23.13;;
53263;SDS011;39153;52.680;6.172;2023-05-07T01:46:48;26.83;;;23.98;;
53263;SDS011;39153;52.680;6.172;2023-05-07T01:49:14;26.50;;;23.70;;
53263;SDS011;39153;52.680;6.172;2023-05-07T01:51:41;26.42;;;23.63;;
53263;SDS011;39153;52.680;6.172;2023-05-07T01:54:07;25.58;;;22.88;;
53263;SDS011;39153;52.680;6.172;2023-05-07T01:56:33;25.10;;;21.88;;
53263;SDS011;39153;52.680;6.172;2023-05-07T01:58:59;24.60;;;22.00;;
53263;SDS011;39153;52.680;6.172;2023-05-07T02:01:25;26.67;;;23.00;;
53263;SDS011;39153;52.680;6.172;2023-05-07T02:03:51;24.77;;;21.35;;
53263;SDS011;39153;52.680;6.172;2023-05-07T02:06:17;23.65;;;21.13;;
53263;SDS011;39153;52.680;6.172;2023-05-07T02:08:42;22.17;;;19.77;;
53263;SDS011;39153;52.680;6.172;2023-05-07T02:11:08;25.35;;;20.92;;
53263;SDS011;39153;52.680;6.172;2023-05-07T02:13:34;25.27;;;19.83;;
53263;SDS011;39153;52.680;6.172;2023-05-07T02:16:00;23.45;;;20.95;;
53263;SDS011;39153;52.680;6.172;2023-05-07T02:18:26;26.20;;;18.88;;
53263;SDS011;39153;52.680;6.172;2023-05-07T02:20:51;21.13;;;18.67;;
53263;SDS011;39153;52.680;6.172;2023-05-07T02:23:17;24.25;;;19.52;;
53263;SDS011;39153;52.680;6.172;2023-05-07T02:25:43;24.48;;;19.98;;
53263;SDS011;39153;52.680;6.172;2023-05-07T02:28:08;23.55;;;17.90;;
53263;SDS011;39153;52.680;6.172;2023-05-07T02:30:35;22.73;;;17.50;;
53263;SDS011;39153;52.680;6.172;2023-05-07T02:33:01;23.48;;;17.33;;
53263;SDS011;39153;52.680;6.172;2023-05-07T02:35:27;19.55;;;17.33;;
53263;SDS011;39153;52.680;6.172;2023-05-07T02:37:53;21.70;;;17.73;;
53263;SDS011;39153;52.680;6.172;2023-05-07T02:40:18;21.50;;;18.77;;
53263;SDS011;39153;52.680;6.172;2023-05-07T02:42:44;22.52;;;18.98;;
53263;SDS011;39153;52.680;6.172;2023-05-07T02:45:10;26.30;;;18.67;;
53263;SDS011;39153;52.680;6.172;2023-05-07T02:47:36;21.13;;;18.83;;
53263;SDS011;39153;52.680;6.172;2023-05-07T02:50:01;23.33;;;17.70;;
53263;SDS011;39153;52.680;6.172;2023-05-07T02:52:28;21.58;;;19.27;;
53263;SDS011;39153;52.680;6.172;2023-05-07T02:54:54;23.30;;;19.75;;
53263;SDS011;39153;52.680;6.172;2023-05-07T02:57:20;25.80;;;19.85;;
53263;SDS011;39153;52.680;6.172;2023-05-07T02:59:45;24.88;;;20.77;;
53263;SDS011;39153;52.680;6.172;2023-05-07T03:02:11;23.73;;;20.63;;
53263;SDS011;39153;52.680;6.172;2023-05-07T03:04:38;23.80;;;19.77;;
53263;SDS011;39153;52.680;6.172;2023-05-07T03:07:04;25.65;;;19.63;;
53263;SDS011;39153;52.680;6.172;2023-05-07T03:09:30;25.65;;;21.40;;
53263;SDS011;39153;52.680;6.172;2023-05-07T03:11:56;24.95;;;22.17;;
53263;SDS011;39153;52.680;6.172;2023-05-07T03:14:22;27.42;;;20.77;;
53263;SDS011;39153;52.680;6.172;2023-05-07T03:16:48;23.55;;;21.05;;
53263;SDS011;39153;52.680;6.172;2023-05-07T03:19:14;25.40;;;20.27;;
53263;SDS011;39153;52.680;6.172;2023-05-07T03:21:40;24.60;;;21.63;;
53263;SDS011;39153;52.680;6.172;2023-05-07T03:24:06;24.15;;;19.58;;
53263;SDS011;39153;52.680;6.172;2023-05-07T03:26:32;26.48;;;21.00;;
53263;SDS011;39153;52.680;6.172;2023-05-07T03:28:57;25.83;;;21.45;;
53263;SDS011;39153;52.680;6.172;2023-05-07T03:31:23;25.13;;;20.60;;
53263;SDS011;39153;52.680;6.172;2023-05-07T03:33:53;26.45;;;20.70;;
53263;SDS011;39153;52.680;6.172;2023-05-07T03:36:20;26.52;;;21.45;;
53263;SDS011;39153;52.680;6.172;2023-05-07T03:38:46;27.77;;;22.60;;
53263;SDS011;39153;52.680;6.172;2023-05-07T03:41:12;26.65;;;20.35;;
53263;SDS011;39153;52.680;6.172;2023-05-07T03:43:38;27.60;;;22.23;;
53263;SDS011;39153;52.680;6.172;2023-05-07T03:46:04;27.90;;;23.23;;
53263;SDS011;39153;52.680;6.172;2023-05-07T03:48:30;28.13;;;22.35;;
53263;SDS011;39153;52.680;6.172;2023-05-07T03:50:56;29.08;;;22.73;;
53263;SDS011;39153;52.680;6.172;2023-05-07T03:53:22;28.20;;;21.40;;
53263;SDS011;39153;52.680;6.172;2023-05-07T03:55:48;29.45;;;21.70;;
53263;SDS011;39153;52.680;6.172;2023-05-07T03:58:14;27.67;;;21.45;;
53263;SDS011;39153;52.680;6.172;2023-05-07T04:00:40;29.25;;;22.10;;
53263;SDS011;39153;52.680;6.172;2023-05-07T04:03:06;27.23;;;21.77;;
53263;SDS011;39153;52.680;6.172;2023-05-07T04:05:32;29.83;;;21.30;;
53263;SDS011;39153;52.680;6.172;2023-05-07T04:07:58;27.88;;;21.88;;
53263;SDS011;39153;52.680;6.172;2023-05-07T04:10:24;29.23;;;22.73;;
53263;SDS011;39153;52.680;6.172;2023-05-07T04:12:50;32.92;;;23.33;;
53263;SDS011;39153;52.680;6.172;2023-05-07T04:15:16;30.73;;;22.70;;
53263;SDS011;39153;52.680;6.172;2023-05-07T04:17:42;30.75;;;25.80;;
53263;SDS011;39153;52.680;6.172;2023-05-07T04:20:16;33.45;;;24.20;;
53263;SDS011;39153;52.680;6.172;2023-05-07T04:22:42;30.10;;;23.50;;
53263;SDS011;39153;52.680;6.172;2023-05-07T04:25:08;31.77;;;23.58;;
53263;SDS011;39153;52.680;6.172;2023-05-07T04:27:35;35.17;;;24.92;;
53263;SDS011;39153;52.680;6.172;2023-05-07T04:30:01;29.98;;;22.85;;
53263;SDS011;39153;52.680;6.172;2023-05-07T04:32:27;31.13;;;25.38;;
53263;SDS011;39153;52.680;6.172;2023-05-07T04:34:54;31.75;;;23.45;;
53263;SDS011;39153;52.680;6.172;2023-05-07T04:37:20;32.63;;;24.10;;
53263;SDS011;39153;52.680;6.172;2023-05-07T04:39:46;34.22;;;25.80;;
53263;SDS011;39153;52.680;6.172;2023-05-07T04:42:15;32.92;;;24.38;;
53263;SDS011;39153;52.680;6.172;2023-05-07T04:44:42;31.75;;;25.05;;
53263;SDS011;39153;52.680;6.172;2023-05-07T04:47:09;31.55;;;24.70;;
53263;SDS011;39153;52.680;6.172;2023-05-07T04:49:35;36.67;;;25.52;;
53263;SDS011;39153;52.680;6.172;2023-05-07T04:52:02;33.30;;;25.85;;
53263;SDS011;39153;52.680;6.172;2023-05-07T04:54:28;34.45;;;24.77;;
53263;SDS011;39153;52.680;6.172;2023-05-07T04:56:54;35.42;;;26.67;;
53263;SDS011;39153;52.680;6.172;2023-05-07T04:59:20;40.70;;;26.80;;
53263;SDS011;39153;52.680;6.172;2023-05-07T05:01:47;39.05;;;26.85;;
53263;SDS011;39153;52.680;6.172;2023-05-07T05:04:13;34.28;;;27.85;;
53263;SDS011;39153;52.680;6.172;2023-05-07T05:06:38;36.20;;;26.63;;
53263;SDS011;39153;52.680;6.172;2023-05-07T05:09:04;38.40;;;27.50;;
53263;SDS011;39153;52.680;6.172;2023-05-07T05:11:31;38.78;;;27.90;;
53263;SDS011;39153;52.680;6.172;2023-05-07T05:13:57;39.38;;;28.25;;
53263;SDS011;39153;52.680;6.172;2023-05-07T05:16:24;38.00;;;28.60;;
53263;SDS011;39153;52.680;6.172;2023-05-07T05:18:49;39.38;;;28.80;;
53263;SDS011;39153;52.680;6.172;2023-05-07T05:21:17;40.50;;;29.33;;
53263;SDS011;39153;52.680;6.172;2023-05-07T05:23:42;44.00;;;29.45;;
53263;SDS011;39153;52.680;6.172;2023-05-07T05:26:08;37.95;;;26.83;;
53263;SDS011;39153;52.680;6.172;2023-05-07T05:28:34;40.70;;;29.05;;
53263;SDS011;39153;52.680;6.172;2023-05-07T05:31:00;43.53;;;29.65;;
53263;SDS011;39153;52.680;6.172;2023-05-07T05:33:25;43.05;;;30.02;;
53263;SDS011;39153;52.680;6.172;2023-05-07T05:35:51;41.33;;;30.77;;
53263;SDS011;39153;52.680;6.172;2023-05-07T05:38:17;37.22;;;31.70;;
53263;SDS011;39153;52.680;6.172;2023-05-07T05:40:42;41.78;;;30.80;;
53263;SDS011;39153;52.680;6.172;2023-05-07T05:43:08;42.03;;;29.73;;
53263;SDS011;39153;52.680;6.172;2023-05-07T05:45:34;39.95;;;28.60;;
53263;SDS011;39153;52.680;6.172;2023-05-07T05:48:00;41.47;;;29.45;;
53263;SDS011;39153;52.680;6.172;2023-05-07T05:50:25;40.65;;;31.48;;
53263;SDS011;39153;52.680;6.172;2023-05-07T05:52:51;41.00;;;29.98;;
53263;SDS011;39153;52.680;6.172;2023-05-07T05:55:17;43.63;;;30.45;;
53263;SDS011;39153;52.680;6.172;2023-05-07T05:57:42;40.33;;;29.55;;
53263;SDS011;39153;52.680;6.172;2023-05-07T06:00:08;40.95;;;30.02;;
53263;SDS011;39153;52.680;6.172;2023-05-07T06:02:35;41.47;;;30.42;;
53263;SDS011;39153;52.680;6.172;2023-05-07T06:05:00;38.28;;;29.58;;
53263;SDS011;39153;52.680;6.172;2023-05-07T06:07:26;44.60;;;30.63;;
53263;SDS011;39153;52.680;6.172;2023-05-07T06:09:52;41.30;;;29.77;;
53263;SDS011;39153;52.680;6.172;2023-05-07T06:12:17;40.80;;;30.10;;
53263;SDS011;39153;52.680;6.172;2023-05-07T06:14:43;40.80;;;30.70;;
53263;SDS011;39153;52.680;6.172;2023-05-07T06:17:09;41.47;;;29.50;;
53263;SDS011;39153;52.680;6.172;2023-05-07T06:19:35;40.67;;;29.20;;
53263;SDS011;39153;52.680;6.172;2023-05-07T06:22:00;43.38;;;30.80;;
53263;SDS011;39153;52.680;6.172;2023-05-07T06:24:27;46.00;;;31.63;;
53263;SDS011;39153;52.680;6.172;2023-05-07T06:26:53;41.00;;;30.13;;
53263;SDS011;39153;52.680;6.172;2023-05-07T06:29:19;37.92;;;29.25;;
53263;SDS011;39153;52.680;6.172;2023-05-07T06:31:45;40.15;;;29.08;;
53263;SDS011;39153;52.680;6.172;2023-05-07T06:34:10;40.58;;;29.05;;
53263;SDS011;39153;52.680;6.172;2023-05-07T06:36:39;37.17;;;31.40;;
53263;SDS011;39153;52.680;6.172;2023-05-07T06:39:05;40.80;;;29.27;;
53263;SDS011;39153;52.680;6.172;2023-05-07T06:41:31;41.05;;;30.17;;
53263;SDS011;39153;52.680;6.172;2023-05-07T06:43:57;41.55;;;29.08;;
53263;SDS011;39153;52.680;6.172;2023-05-07T06:46:22;43.53;;;29.10;;
53263;SDS011;39153;52.680;6.172;2023-05-07T06:48:48;40.03;;;29.00;;
53263;SDS011;39153;52.680;6.172;2023-05-07T06:51:14;40.63;;;28.85;;
53263;SDS011;39153;52.680;6.172;2023-05-07T06:53:39;39.03;;;28.70;;
53263;SDS011;39153;52.680;6.172;2023-05-07T06:56:05;39.97;;;29.23;;
53263;SDS011;39153;52.680;6.172;2023-05-07T06:58:31;36.42;;;30.10;;
53263;SDS011;39153;52.680;6.172;2023-05-07T07:00:57;37.47;;;28.00;;
53263;SDS011;39153;52.680;6.172;2023-05-07T07:03:23;36.65;;;29.70;;
53263;SDS011;39153;52.680;6.172;2023-05-07T07:05:51;32.47;;;28.75;;
53263;SDS011;39153;52.680;6.172;2023-05-07T07:08:18;39.20;;;27.95;;
53263;SDS011;39153;52.680;6.172;2023-05-07T07:10:46;31.65;;;27.52;;
53263;SDS011;39153;52.680;6.172;2023-05-07T07:13:12;33.88;;;26.73;;
53263;SDS011;39153;52.680;6.172;2023-05-07T07:15:38;32.60;;;27.83;;
53263;SDS011;39153;52.680;6.172;2023-05-07T07:18:03;35.95;;;25.98;;
53263;SDS011;39153;52.680;6.172;2023-05-07T07:20:29;31.60;;;27.13;;
53263;SDS011;39153;52.680;6.172;2023-05-07T07:22:55;31.70;;;26.65;;
53263;SDS011;39153;52.680;6.172;2023-05-07T07:25:21;33.30;;;28.20;;
53263;SDS011;39153;52.680;6.172;2023-05-07T07:27:46;30.27;;;26.85;;
53263;SDS011;39153;52.680;6.172;2023-05-07T07:30:12;36.83;;;26.98;;
53263;SDS011;39153;52.680;6.172;2023-05-07T07:32:38;32.17;;;27.00;;
53263;SDS011;39153;52.680;6.172;2023-05-07T07:35:04;31.33;;;27.20;;
53263;SDS011;39153;52.680;6.172;2023-05-07T07:37:30;30.00;;;25.83;;
53263;SDS011;39153;52.680;6.172;2023-05-07T07:39:56;30.98;;;26.30;;
53263;SDS011;39153;52.680;6.172;2023-05-07T07:42:21;32.20;;;26.52;;
53263;SDS011;39153;52.680;6.172;2023-05-07T07:44:47;31.20;;;26.27;;
53263;SDS011;39153;52.680;6.172;2023-05-07T07:47:13;32.65;;;26.00;;
53263;SDS011;39153;52.680;6.172;2023-05-07T07:49:39;33.30;;;26.48;;
53263;SDS011;39153;52.680;6.172;2023-05-07T07:52:04;28.83;;;25.67;;
53263;SDS011;39153;52.680;6.172;2023-05-07T07:54:30;29.60;;;25.95;;
53263;SDS011;39153;52.680;6.172;2023-05-07T07:56:56;31.55;;;26.52;;
53263;SDS011;39153;52.680;6.172;2023-05-07T07:59:22;32.63;;;26.35;;
53263;SDS011;39153;52.680;6.172;2023-05-07T08:01:48;29.80;;;26.08;;
53263;SDS011;39153;52.680;6.172;2023-05-07T08:04:15;31.33;;;27.25;;
53263;SDS011;39153;52.680;6.172;2023-05-07T08:06:41;30.40;;;26.45;;
53263;SDS011;39153;52.680;6.172;2023-05-07T08:09:07;30.42;;;26.88;;
53263;SDS011;39153;52.680;6.172;2023-05-07T08:11:33;31.08;;;26.27;;
53263;SDS011;39153;52.680;6.172;2023-05-07T08:13:59;31.05;;;27.48;;
53263;SDS011;39153;52.680;6.172;2023-05-07T08:16:25;32.75;;;27.10;;
53263;SDS011;39153;52.680;6.172;2023-05-07T08:18:51;30.02;;;26.83;;
53263;SDS011;39153;52.680;6.172;2023-05-07T08:21:16;30.27;;;25.67;;
53263;SDS011;39153;52.680;6.172;2023-05-07T08:23:42;34.78;;;26.67;;
53263;SDS011;39153;52.680;6.172;2023-05-07T08:26:08;33.72;;;26.25;;
53263;SDS011;39153;52.680;6.172;2023-05-07T08:28:33;30.38;;;25.77;;
53263;SDS011;39153;52.680;6.172;2023-05-07T08:30:59;29.90;;;26.55;;
53263;SDS011;39153;52.680;6.172;2023-05-07T08:33:26;30.95;;;25.38;;
53263;SDS011;39153;52.680;6.172;2023-05-07T08:35:52;30.02;;;26.08;;
53263;SDS011;39153;52.680;6.172;2023-05-07T08:38:17;29.65;;;25.65;;
53263;SDS011;39153;52.680;6.172;2023-05-07T08:40:43;28.42;;;24.85;;
53263;SDS011;39153;52.680;6.172;2023-05-07T08:43:09;33.15;;;25.67;;
53263;SDS011;39153;52.680;6.172;2023-05-07T08:45:38;29.15;;;26.02;;
53263;SDS011;39153;52.680;6.172;2023-05-07T08:48:07;29.48;;;25.92;;
53263;SDS011;39153;52.680;6.172;2023-05-07T08:50:35;30.10;;;25.23;;
53263;SDS011;39153;52.680;6.172;2023-05-07T08:53:05;33.58;;;27.52;;
53263;SDS011;39153;52.680;6.172;2023-05-07T08:55:30;28.52;;;24.63;;
53263;SDS011;39153;52.680;6.172;2023-05-07T08:57:56;29.50;;;24.85;;
53263;SDS011;39153;52.680;6.172;2023-05-07T09:00:22;29.10;;;23.33;;
53263;SDS011;39153;52.680;6.172;2023-05-07T09:02:48;28.77;;;23.90;;
53263;SDS011;39153;52.680;6.172;2023-05-07T09:05:13;28.95;;;24.90;;
53263;SDS011;39153;52.680;6.172;2023-05-07T09:07:39;30.02;;;24.98;;
53263;SDS011;39153;52.680;6.172;2023-05-07T09:10:05;27.08;;;24.17;;
53263;SDS011;39153;52.680;6.172;2023-05-07T09:12:31;28.70;;;25.48;;
53263;SDS011;39153;52.680;6.172;2023-05-07T09:14:58;28.80;;;23.92;;
53263;SDS011;39153;52.680;6.172;2023-05-07T09:17:24;28.33;;;24.73;;
53263;SDS011;39153;52.680;6.172;2023-05-07T09:19:50;29.35;;;24.60;;
53263;SDS011;39153;52.680;6.172;2023-05-07T09:22:16;27.80;;;24.33;;
53263;SDS011;39153;52.680;6.172;2023-05-07T09:24:47;26.63;;;22.80;;
53263;SDS011;39153;52.680;6.172;2023-05-07T09:27:13;28.42;;;24.55;;
53263;SDS011;39153;52.680;6.172;2023-05-07T09:29:39;29.15;;;24.90;;
53263;SDS011;39153;52.680;6.172;2023-05-07T09:32:05;28.90;;;25.90;;
53263;SDS011;39153;52.680;6.172;2023-05-07T09:34:32;27.90;;;23.45;;
53263;SDS011;39153;52.680;6.172;2023-05-07T09:37:01;30.15;;;25.00;;
53263;SDS011;39153;52.680;6.172;2023-05-07T09:39:38;30.17;;;24.83;;
53263;SDS011;39153;52.680;6.172;2023-05-07T09:42:05;27.95;;;24.45;;
53263;SDS011;39153;52.680;6.172;2023-05-07T09:44:32;27.73;;;23.73;;
53263;SDS011;39153;52.680;6.172;2023-05-07T09:46:59;26.48;;;23.30;;
53263;SDS011;39153;52.680;6.172;2023-05-07T09:49:25;27.63;;;24.38;;
53263;SDS011;39153;52.680;6.172;2023-05-07T09:51:55;27.80;;;23.55;;
53263;SDS011;39153;52.680;6.172;2023-05-07T09:54:23;29.23;;;24.02;;
53263;SDS011;39153;52.680;6.172;2023-05-07T09:56:49;29.63;;;25.05;;
53263;SDS011;39153;52.680;6.172;2023-05-07T09:59:17;29.33;;;23.77;;
53263;SDS011;39153;52.680;6.172;2023-05-07T10:01:43;25.55;;;22.58;;
53263;SDS011;39153;52.680;6.172;2023-05-07T10:04:10;27.25;;;23.27;;
53263;SDS011;39153;52.680;6.172;2023-05-07T10:06:36;27.75;;;23.63;;
53263;SDS011;39153;52.680;6.172;2023-05-07T10:09:03;27.10;;;23.25;;
53263;SDS011;39153;52.680;6.172;2023-05-07T10:11:33;28.15;;;22.73;;
53263;SDS011;39153;52.680;6.172;2023-05-07T10:13:59;28.90;;;22.38;;
53263;SDS011;39153;52.680;6.172;2023-05-07T10:16:27;26.50;;;22.33;;
53263;SDS011;39153;52.680;6.172;2023-05-07T10:19:04;24.48;;;21.55;;
53263;SDS011;39153;52.680;6.172;2023-05-07T10:21:32;25.40;;;22.02;;
53263;SDS011;39153;52.680;6.172;2023-05-07T10:24:04;27.02;;;22.40;;
53263;SDS011;39153;52.680;6.172;2023-05-07T10:26:43;24.10;;;21.35;;
53263;SDS011;39153;52.680;6.172;2023-05-07T10:31:55;26.45;;;22.10;;
53263;SDS011;39153;52.680;6.172;2023-05-07T10:34:35;26.52;;;21.25;;
53263;SDS011;39153;52.680;6.172;2023-05-07T10:37:03;22.58;;;20.15;;
53263;SDS011;39153;52.680;6.172;2023-05-07T10:39:29;27.63;;;21.75;;
53263;SDS011;39153;52.680;6.172;2023-05-07T10:41:55;26.30;;;22.60;;
53263;SDS011;39153;52.680;6.172;2023-05-07T10:44:24;24.85;;;21.48;;
53263;SDS011;39153;52.680;6.172;2023-05-07T10:47:11;25.95;;;22.42;;
53263;SDS011;39153;52.680;6.172;2023-05-07T10:54:45;25.65;;;21.67;;
53263;SDS011;39153;52.680;6.172;2023-05-07T11:05:28;25.73;;;21.65;;
53263;SDS011;39153;52.680;6.172;2023-05-07T11:07:59;24.23;;;20.25;;
53263;SDS011;39153;52.680;6.172;2023-05-07T11:10:59;22.83;;;19.58;;
53263;SDS011;39153;52.680;6.172;2023-05-07T11:16:20;22.30;;;19.20;;
53263;SDS011;39153;52.680;6.172;2023-05-07T11:18:51;22.50;;;19.90;;
53263;SDS011;39153;52.680;6.172;2023-05-07T11:21:39;23.25;;;19.95;;
53263;SDS011;39153;52.680;6.172;2023-05-07T11:24:05;24.38;;;19.02;;
53263;SDS011;39153;52.680;6.172;2023-05-07T11:27:08;21.63;;;18.85;;
53263;SDS011;39153;52.680;6.172;2023-05-07T11:29:27;20.30;;;18.08;;
53263;SDS011;39153;52.680;6.172;2023-05-07T11:31:54;23.10;;;19.02;;
53263;SDS011;39153;52.680;6.172;2023-05-07T11:34:20;23.95;;;20.42;;
53263;SDS011;39153;52.680;6.172;2023-05-07T11:36:51;23.75;;;20.38;;
53263;SDS011;39153;52.680;6.172;2023-05-07T11:39:24;22.55;;;17.83;;
53263;SDS011;39153;52.680;6.172;2023-05-07T11:41:51;22.85;;;18.52;;
53263;SDS011;39153;52.680;6.172;2023-05-07T11:44:16;20.83;;;17.60;;
53263;SDS011;39153;52.680;6.172;2023-05-07T11:46:43;23.75;;;18.83;;
53263;SDS011;39153;52.680;6.172;2023-05-07T11:49:09;23.95;;;19.70;;
53263;SDS011;39153;52.680;6.172;2023-05-07T11:51:35;23.58;;;19.40;;
53263;SDS011;39153;52.680;6.172;2023-05-07T11:54:03;23.10;;;17.73;;
53263;SDS011;39153;52.680;6.172;2023-05-07T11:56:34;20.50;;;16.92;;
53263;SDS011;39153;52.680;6.172;2023-05-07T11:59:00;21.55;;;18.42;;
53263;SDS011;39153;52.680;6.172;2023-05-07T12:01:26;19.98;;;16.65;;
53263;SDS011;39153;52.680;6.172;2023-05-07T12:03:51;21.65;;;16.05;;
53263;SDS011;39153;52.680;6.172;2023-05-07T12:06:17;21.50;;;16.52;;
53263;SDS011;39153;52.680;6.172;2023-05-07T12:08:44;24.65;;;18.67;;
53263;SDS011;39153;52.680;6.172;2023-05-07T12:11:15;20.92;;;18.00;;
53263;SDS011;39153;52.680;6.172;2023-05-07T12:13:43;21.17;;;18.35;;
53263;SDS011;39153;52.680;6.172;2023-05-07T12:16:09;19.95;;;17.55;;
53263;SDS011;39153;52.680;6.172;2023-05-07T12:18:35;20.55;;;17.60;;
53263;SDS011;39153;52.680;6.172;2023-05-07T12:21:01;20.45;;;16.90;;
53263;SDS011;39153;52.680;6.172;2023-05-07T12:23:27;17.60;;;15.80;;
53263;SDS011;39153;52.680;6.172;2023-05-07T12:25:54;19.15;;;16.13;;
53263;SDS011;39153;52.680;6.172;2023-05-07T12:28:19;18.85;;;15.13;;
53263;SDS011;39153;52.680;6.172;2023-05-07T12:30:46;19.65;;;15.95;;
53263;SDS011;39153;52.680;6.172;2023-05-07T12:33:19;21.25;;;17.23;;
53263;SDS011;39153;52.680;6.172;2023-05-07T12:35:49;22.10;;;17.23;;
53263;SDS011;39153;52.680;6.172;2023-05-07T12:38:16;19.10;;;17.02;;
53263;SDS011;39153;52.680;6.172;2023-05-07T12:40:46;19.55;;;16.20;;
53263;SDS011;39153;52.680;6.172;2023-05-07T12:43:24;19.08;;;17.02;;
53263;SDS011;39153;52.680;6.172;2023-05-07T12:45:50;22.73;;;18.35;;
53263;SDS011;39153;52.680;6.172;2023-05-07T12:48:19;19.33;;;17.30;;
53263;SDS011;39153;52.680;6.172;2023-05-07T12:50:45;19.55;;;17.45;;
53263;SDS011;39153;52.680;6.172;2023-05-07T12:53:21;20.80;;;17.25;;
53263;SDS011;39153;52.680;6.172;2023-05-07T12:55:50;19.75;;;16.20;;
53263;SDS011;39153;52.680;6.172;2023-05-07T12:58:18;18.65;;;16.00;;
53263;SDS011;39153;52.680;6.172;2023-05-07T13:00:55;18.02;;;15.90;;
53263;SDS011;39153;52.680;6.172;2023-05-07T13:03:29;19.55;;;16.75;;
53263;SDS011;39153;52.680;6.172;2023-05-07T13:05:57;19.52;;;16.27;;
53263;SDS011;39153;52.680;6.172;2023-05-07T13:08:25;18.77;;;16.48;;
53263;SDS011;39153;52.680;6.172;2023-05-07T13:10:50;19.10;;;16.58;;
53263;SDS011;39153;52.680;6.172;2023-05-07T13:13:17;19.33;;;14.98;;
53263;SDS011;39153;52.680;6.172;2023-05-07T13:15:42;19.15;;;16.95;;
53263;SDS011;39153;52.680;6.172;2023-05-07T13:18:08;17.75;;;15.10;;
53263;SDS011;39153;52.680;6.172;2023-05-07T13:20:36;20.02;;;16.80;;
53263;SDS011;39153;52.680;6.172;2023-05-07T13:23:01;20.23;;;16.85;;
53263;SDS011;39153;52.680;6.172;2023-05-07T13:25:29;20.23;;;16.25;;
53263;SDS011;39153;52.680;6.172;2023-05-07T13:27:56;19.30;;;16.05;;
53263;SDS011;39153;52.680;6.172;2023-05-07T13:30:22;20.52;;;16.63;;
53263;SDS011;39153;52.680;6.172;2023-05-07T13:32:48;18.63;;;16.48;;
53263;SDS011;39153;52.680;6.172;2023-05-07T13:35:15;18.75;;;16.70;;
53263;SDS011;39153;52.680;6.172;2023-05-07T13:37:41;16.80;;;14.77;;
53263;SDS011;39153;52.680;6.172;2023-05-07T13:40:07;18.45;;;14.98;;
53263;SDS011;39153;52.680;6.172;2023-05-07T13:42:33;19.73;;;15.52;;
53263;SDS011;39153;52.680;6.172;2023-05-07T13:44:59;18.23;;;16.02;;
53263;SDS011;39153;52.680;6.172;2023-05-07T13:47:25;16.08;;;13.75;;
53263;SDS011;39153;52.680;6.172;2023-05-07T13:49:50;17.75;;;14.55;;
53263;SDS011;39153;52.680;6.172;2023-05-07T13:52:16;18.73;;;14.20;;
53263;SDS011;39153;52.680;6.172;2023-05-07T13:54:42;17.13;;;14.32;;
53263;SDS011;39153;52.680;6.172;2023-05-07T13:57:08;15.27;;;12.98;;
53263;SDS011;39153;52.680;6.172;2023-05-07T13:59:34;15.80;;;12.55;;
53263;SDS011;39153;52.680;6.172;2023-05-07T14:01:59;17.40;;;12.65;;
53263;SDS011;39153;52.680;6.172;2023-05-07T14:04:25;15.95;;;13.13;;
53263;SDS011;39153;52.680;6.172;2023-05-07T14:06:51;15.30;;;13.70;;
53263;SDS011;39153;52.680;6.172;2023-05-07T14:09:16;19.10;;;15.80;;
53263;SDS011;39153;52.680;6.172;2023-05-07T14:11:42;18.10;;;14.57;;
53263;SDS011;39153;52.680;6.172;2023-05-07T14:14:08;15.20;;;12.38;;
53263;SDS011;39153;52.680;6.172;2023-05-07T14:16:36;15.15;;;12.15;;
53263;SDS011;39153;52.680;6.172;2023-05-07T14:19:02;15.45;;;12.57;;
53263;SDS011;39153;52.680;6.172;2023-05-07T14:21:28;15.95;;;13.85;;
53263;SDS011;39153;52.680;6.172;2023-05-07T14:23:55;15.23;;;13.35;;
53263;SDS011;39153;52.680;6.172;2023-05-07T14:26:21;22.60;;;14.43;;
53263;SDS011;39153;52.680;6.172;2023-05-07T14:28:48;18.50;;;15.38;;
53263;SDS011;39153;52.680;6.172;2023-05-07T14:31:14;16.25;;;13.70;;
53263;SDS011;39153;52.680;6.172;2023-05-07T14:33:40;15.45;;;12.57;;
53263;SDS011;39153;52.680;6.172;2023-05-07T14:36:06;14.07;;;12.05;;
53263;SDS011;39153;52.680;6.172;2023-05-07T14:38:31;16.15;;;12.77;;